Time;durP1;ratioP1;P1;durP2;ratioP2;P2;SDS_P1;SDS_P2;PMS_P1;PMS_P2;Temp;Humidity;BMP_temperature;BMP_pressure;BME280_temperature;BME280_humidity;BME280_pressure;Samples;Min_cycle;Max_cycle;Signal;HPM_P1;HPM_P2
2022/04/03 00:23:47;;;;;;;14.93;5.28;;;;;;;;;;4095158;34;20161;-61
2022/04/03 00:26:13;;;;;;;16.15;4.85;;;;;;;;;;4105598;34;20228;-60
2022/04/03 00:28:39;;;;;;;18.30;5.10;;;;;;;;;;4100033;34;20525;-63
2022/04/03 00:31:05;;;;;;;14.07;5.85;;;;;;;;;;4095746;35;20138;-62
2022/04/03 00:33:31;;;;;;;15.65;4.72;;;;;;;;;;4095736;35;20104;-63
2022/04/03 00:35:57;;;;;;;16.83;4.80;;;;;;;;;;4095767;35;20212;-62
2022/04/03 00:38:23;;;;;;;14.57;4.43;;;;;;;;;;4095521;35;20272;-62
2022/04/03 00:40:49;;;;;;;12.75;4.62;;;;;;;;;;4095678;35;20119;-62
2022/04/03 00:43:15;;;;;;;14.30;4.68;;;;;;;;;;4095555;35;20119;-62
2022/04/03 00:45:46;;;;;;;17.90;5.85;;;;;;;;;;4096371;35;20120;-62
2022/04/03 00:48:12;;;;;;;8.48;4.40;;;;;;;;;;4097494;35;20109;-61
2022/04/03 00:50:39;;;;;;;11.38;3.85;;;;;;;;;;4097804;35;20122;-63
2022/04/03 00:53:05;;;;;;;17.25;5.25;;;;;;;;;;4097671;35;20143;-62
2022/04/03 00:55:31;;;;;;;14.25;5.40;;;;;;;;;;4097711;35;20143;-62
2022/04/03 00:58:01;;;;;;;12.25;4.80;;;;;;;;;;4097365;35;20104;-62
2022/04/03 01:00:27;;;;;;;18.40;4.85;;;;;;;;;;4097890;35;20214;-62
2022/04/03 01:02:53;;;;;;;13.75;5.45;;;;;;;;;;4085430;35;20149;-62
2022/04/03 01:05:19;;;;;;;21.08;5.40;;;;;;;;;;4085249;35;20135;-61
2022/04/03 01:07:45;;;;;;;19.30;6.57;;;;;;;;;;4097508;35;20114;-63
2022/04/03 01:10:11;;;;;;;15.55;5.40;;;;;;;;;;4097378;35;20119;-63
2022/04/03 01:12:46;;;;;;;19.60;5.00;;;;;;;;;;4097477;35;20124;-62
2022/04/03 01:15:17;;;;;;;14.52;5.50;;;;;;;;;;4097439;35;20107;-63
2022/04/03 01:17:43;;;;;;;11.15;4.30;;;;;;;;;;4097749;35;20127;-62
2022/04/03 01:20:10;;;;;;;10.32;4.43;;;;;;;;;;4097256;35;20131;-62
2022/04/03 01:22:37;;;;;;;16.67;4.93;;;;;;;;;;4097202;35;20109;-61
2022/04/03 01:25:04;;;;;;;15.57;4.40;;;;;;;;;;4097467;35;20179;-62
2022/04/03 01:27:30;;;;;;;12.82;4.45;;;;;;;;;;4097600;35;20123;-62
2022/04/03 01:29:57;;;;;;;10.07;3.45;;;;;;;;;;4097561;35;20112;-62
2022/04/03 01:32:24;;;;;;;14.52;4.62;;;;;;;;;;4097339;35;20214;-61
2022/04/03 01:34:50;;;;;;;11.90;4.68;;;;;;;;;;4097301;35;20124;-61
2022/04/03 01:37:16;;;;;;;18.37;5.05;;;;;;;;;;4085064;35;20119;-60
2022/04/03 01:39:42;;;;;;;12.43;4.37;;;;;;;;;;4097131;35;20117;-60
2022/04/03 01:42:09;;;;;;;12.25;4.55;;;;;;;;;;4097342;35;20548;-61
2022/04/03 01:44:35;;;;;;;15.00;4.55;;;;;;;;;;4097161;35;20195;-58
2022/04/03 01:47:01;;;;;;;4.97;2.25;;;;;;;;;;4097129;35;20580;-59
2022/04/03 01:49:27;;;;;;;2.37;1.80;;;;;;;;;;4097167;35;20128;-60
2022/04/03 01:51:53;;;;;;;0.98;0.98;;;;;;;;;;4097175;35;20119;-61
2022/04/03 01:54:19;;;;;;;1.08;1.08;;;;;;;;;;4096580;35;20203;-61
2022/04/03 01:56:45;;;;;;;0.90;0.90;;;;;;;;;;4096702;35;20451;-61
2022/04/03 01:59:11;;;;;;;1.27;1.17;;;;;;;;;;4095564;35;20142;-61
2022/04/03 02:01:37;;;;;;;1.40;1.30;;;;;;;;;;4096953;35;20481;-60
2022/04/03 02:04:04;;;;;;;8.38;1.83;;;;;;;;;;4099787;34;20112;-58
2022/04/03 02:06:30;;;;;;;1.45;1.35;;;;;;;;;;4076804;35;20112;-59
2022/04/03 02:08:57;;;;;;;16.12;3.95;;;;;;;;;;4071674;35;20160;-59
2022/04/03 02:11:23;;;;;;;9.77;3.15;;;;;;;;;;4083824;35;20220;-60
2022/04/03 02:13:50;;;;;;;17.92;4.20;;;;;;;;;;4083828;35;20561;-59
2022/04/03 02:16:16;;;;;;;17.62;3.92;;;;;;;;;;4083865;35;20182;-59
2022/04/03 02:18:42;;;;;;;11.80;3.75;;;;;;;;;;4083710;35;20112;-58
2022/04/03 02:21:08;;;;;;;16.90;3.92;;;;;;;;;;4083829;35;20169;-58
2022/04/03 02:23:34;;;;;;;10.07;3.35;;;;;;;;;;4083788;35;20096;-58
2022/04/03 02:26:00;;;;;;;12.13;3.58;;;;;;;;;;4097237;35;20113;-58
2022/04/03 02:28:26;;;;;;;8.10;3.28;;;;;;;;;;4084560;35;20101;-58
2022/04/03 02:30:52;;;;;;;13.25;3.95;;;;;;;;;;4096968;35;20136;-58
2022/04/03 02:33:19;;;;;;;13.65;4.18;;;;;;;;;;4096844;35;20116;-58
2022/04/03 02:35:45;;;;;;;14.75;4.20;;;;;;;;;;4096816;35;20100;-58
2022/04/03 02:38:11;;;;;;;22.75;4.28;;;;;;;;;;4096570;35;20211;-58
2022/04/03 02:40:37;;;;;;;8.75;3.58;;;;;;;;;;4096753;35;20143;-58
2022/04/03 02:43:05;;;;;;;15.85;4.20;;;;;;;;;;4096804;35;20265;-58
2022/04/03 02:45:31;;;;;;;10.30;4.05;;;;;;;;;;4096744;35;20147;-58
2022/04/03 02:47:57;;;;;;;10.45;4.32;;;;;;;;;;4096844;35;20120;-58
2022/04/03 02:50:24;;;;;;;6.72;3.70;;;;;;;;;;4096679;35;20112;-59
2022/04/03 02:52:51;;;;;;;13.35;4.78;;;;;;;;;;4097018;35;20108;-58
2022/04/03 02:55:18;;;;;;;20.88;3.55;;;;;;;;;;4096554;35;20120;-59
2022/04/03 02:57:44;;;;;;;14.90;4.75;;;;;;;;;;4096617;35;20128;-59
2022/04/03 03:00:14;;;;;;;15.23;5.07;;;;;;;;;;4096367;35;20203;-59
2022/04/03 03:02:41;;;;;;;17.85;4.15;;;;;;;;;;4096589;35;20488;-59
2022/04/03 03:05:08;;;;;;;15.73;4.50;;;;;;;;;;4096773;35;20093;-58
2022/04/03 03:07:38;;;;;;;15.13;4.70;;;;;;;;;;4096659;35;20132;-60
2022/04/03 03:10:06;;;;;;;15.98;4.22;;;;;;;;;;4096282;35;20124;-60
2022/04/03 03:12:32;;;;;;;12.40;4.12;;;;;;;;;;4095388;35;20442;-60
2022/04/03 03:14:58;;;;;;;14.80;4.78;;;;;;;;;;4096773;35;20176;-59
2022/04/03 03:17:24;;;;;;;15.05;4.82;;;;;;;;;;4096466;35;20132;-60
2022/04/03 03:19:50;;;;;;;14.95;4.28;;;;;;;;;;4096359;35;20521;-59
2022/04/03 03:22:16;;;;;;;9.93;3.20;;;;;;;;;;4096345;35;20204;-61
2022/04/03 03:24:42;;;;;;;17.60;4.00;;;;;;;;;;4096239;35;20115;-60
2022/04/03 03:27:08;;;;;;;13.80;4.57;;;;;;;;;;4096644;35;20123;-59
2022/04/03 03:29:34;;;;;;;11.95;4.18;;;;;;;;;;4096364;35;20206;-58
2022/04/03 03:32:00;;;;;;;12.20;5.40;;;;;;;;;;4096440;35;20143;-59
2022/04/03 03:34:26;;;;;;;16.90;4.20;;;;;;;;;;4096283;35;20118;-58
2022/04/03 03:36:52;;;;;;;19.33;4.40;;;;;;;;;;4096192;35;20108;-58
2022/04/03 03:39:18;;;;;;;13.10;4.37;;;;;;;;;;4096068;35;20105;-59
2022/04/03 03:41:44;;;;;;;10.90;3.22;;;;;;;;;;4096268;35;20797;-58
2022/04/03 03:44:10;;;;;;;12.18;4.03;;;;;;;;;;4096332;35;20101;-59
2022/04/03 03:46:40;;;;;;;11.32;3.58;;;;;;;;;;4084124;35;20128;-59
2022/04/03 03:49:07;;;;;;;17.52;4.18;;;;;;;;;;4096193;35;20543;-59
2022/04/03 03:51:34;;;;;;;10.38;3.17;;;;;;;;;;4096314;35;20187;-59
2022/04/03 03:54:00;;;;;;;1.30;1.10;;;;;;;;;;4096094;35;20105;-61
2022/04/03 03:56:27;;;;;;;2.03;1.30;;;;;;;;;;4096055;35;20560;-58
2022/04/03 03:58:53;;;;;;;7.45;2.50;;;;;;;;;;4096035;35;20096;-58
2022/04/03 04:01:20;;;;;;;10.88;4.72;;;;;;;;;;4095934;35;20469;-62
2022/04/03 04:03:46;;;;;;;11.85;3.22;;;;;;;;;;4096208;35;20125;-62
2022/04/03 04:06:12;;;;;;;22.90;4.53;;;;;;;;;;4096055;35;20127;-62
2022/04/03 04:08:39;;;;;;;7.22;2.08;;;;;;;;;;4095998;35;20489;-61
2022/04/03 04:11:06;;;;;;;10.98;3.58;;;;;;;;;;4095892;35;20097;-61
2022/04/03 04:13:32;;;;;;;14.35;3.00;;;;;;;;;;4095842;35;20101;-59
2022/04/03 04:15:59;;;;;;;4.28;2.15;;;;;;;;;;4095933;35;20128;-59
2022/04/03 04:18:25;;;;;;;4.75;1.65;;;;;;;;;;4095785;35;20185;-60
2022/04/03 04:20:51;;;;;;;12.27;4.00;;;;;;;;;;4103752;34;20227;-60
2022/04/03 04:23:21;;;;;;;8.57;3.37;;;;;;;;;;4098347;34;20208;-59
2022/04/03 04:25:47;;;;;;;19.65;4.28;;;;;;;;;;4096920;35;20092;-59
2022/04/03 04:28:13;;;;;;;11.00;2.72;;;;;;;;;;4097660;35;20101;-60
2022/04/03 04:30:39;;;;;;;16.73;3.70;;;;;;;;;;4097872;35;20094;-60
2022/04/03 04:33:06;;;;;;;6.87;2.40;;;;;;;;;;4097342;35;20212;-60
2022/04/03 04:35:36;;;;;;;10.68;2.95;;;;;;;;;;4097666;35;20574;-59
2022/04/03 04:38:05;;;;;;;11.85;3.75;;;;;;;;;;4097835;35;20212;-58
2022/04/03 04:40:31;;;;;;;4.87;2.03;;;;;;;;;;4097932;35;20210;-61
2022/04/03 04:42:58;;;;;;;13.15;3.62;;;;;;;;;;4085316;35;20108;-60
2022/04/03 04:45:27;;;;;;;12.70;3.62;;;;;;;;;;4079898;35;20171;-59
2022/04/03 04:47:59;;;;;;;5.32;1.77;;;;;;;;;;4084911;35;20116;-58
2022/04/03 04:50:27;;;;;;;12.43;4.00;;;;;;;;;;4084723;35;20109;-59
2022/04/03 04:52:53;;;;;;;9.35;3.45;;;;;;;;;;4083428;35;20106;-58
2022/04/03 04:55:19;;;;;;;10.07;2.70;;;;;;;;;;4091668;35;20811;-57
2022/04/03 04:57:58;;;;;;;5.30;1.85;;;;;;;;;;4097920;35;20199;-59
2022/04/03 05:00:26;;;;;;;10.85;3.55;;;;;;;;;;4097330;35;20195;-59
2022/04/03 05:02:52;;;;;;;4.90;1.83;;;;;;;;;;4097405;35;20224;-58
2022/04/03 05:05:19;;;;;;;13.25;3.97;;;;;;;;;;4097410;35;20463;-59
2022/04/03 05:07:48;;;;;;;14.35;3.40;;;;;;;;;;4097580;35;20123;-59
2022/04/03 05:10:15;;;;;;;13.38;4.30;;;;;;;;;;4097426;35;20182;-59
2022/04/03 05:12:42;;;;;;;15.43;3.75;;;;;;;;;;4085514;35;20151;-59
2022/04/03 05:15:11;;;;;;;16.50;3.42;;;;;;;;;;4097226;35;20593;-59
2022/04/03 05:17:39;;;;;;;14.60;3.78;;;;;;;;;;4097377;35;20132;-57
2022/04/03 05:20:05;;;;;;;12.50;4.62;;;;;;;;;;4084872;35;20122;-59
2022/04/03 05:22:31;;;;;;;18.52;4.00;;;;;;;;;;4084963;35;20212;-58
2022/04/03 05:24:58;;;;;;;19.62;3.92;;;;;;;;;;4097506;35;20505;-58
2022/04/03 05:27:24;;;;;;;11.63;3.28;;;;;;;;;;4097368;35;20127;-58
2022/04/03 05:29:50;;;;;;;10.05;3.70;;;;;;;;;;4097381;35;20136;-58
2022/04/03 05:32:27;;;;;;;27.10;5.03;;;;;;;;;;4097417;35;20547;-62
2022/04/03 05:34:54;;;;;;;9.90;3.30;;;;;;;;;;4083988;35;20093;-59
2022/04/03 05:37:21;;;;;;;11.00;3.67;;;;;;;;;;4096096;35;20547;-58
2022/04/03 05:39:47;;;;;;;20.30;4.25;;;;;;;;;;4096205;35;20435;-57
2022/04/03 05:42:13;;;;;;;3.20;1.98;;;;;;;;;;4096365;35;20202;-58
2022/04/03 05:44:39;;;;;;;9.27;3.95;;;;;;;;;;4096096;35;20120;-61
2022/04/03 05:47:06;;;;;;;8.40;3.10;;;;;;;;;;4096019;35;20131;-59
2022/04/03 05:49:32;;;;;;;11.32;4.32;;;;;;;;;;4096248;35;20100;-59
2022/04/03 05:51:57;;;;;;;8.15;2.83;;;;;;;;;;4096245;35;20128;-61
2022/04/03 05:54:23;;;;;;;15.55;4.65;;;;;;;;;;4095912;35;20135;-62
2022/04/03 05:56:49;;;;;;;6.62;2.95;;;;;;;;;;4094589;35;20215;-61
2022/04/03 05:59:18;;;;;;;11.15;3.92;;;;;;;;;;4095799;35;20127;-63
2022/04/03 06:01:44;;;;;;;6.80;3.40;;;;;;;;;;4098674;34;20120;-61
2022/04/03 06:04:10;;;;;;;8.98;4.15;;;;;;;;;;4097956;34;20124;-61
2022/04/03 06:06:36;;;;;;;12.85;4.55;;;;;;;;;;4107289;34;20545;-62
2022/04/03 06:09:02;;;;;;;13.77;3.75;;;;;;;;;;4094454;35;20203;-61
2022/04/03 06:11:28;;;;;;;11.35;3.22;;;;;;;;;;4105630;34;20214;-62
2022/04/03 06:13:54;;;;;;;13.02;4.10;;;;;;;;;;4104663;34;20199;-59
2022/04/03 06:16:20;;;;;;;14.73;4.78;;;;;;;;;;4101819;34;20093;-61
2022/04/03 06:18:46;;;;;;;10.43;3.75;;;;;;;;;;4106486;34;20210;-63
2022/04/03 06:21:12;;;;;;;10.00;3.15;;;;;;;;;;4108117;34;20138;-64
2022/04/03 06:23:38;;;;;;;14.52;4.72;;;;;;;;;;4108621;34;20462;-64
2022/04/03 06:26:04;;;;;;;9.45;4.03;;;;;;;;;;4108437;34;20127;-62
2022/04/03 06:28:29;;;;;;;12.18;5.07;;;;;;;;;;4108718;34;20226;-64
2022/04/03 06:30:56;;;;;;;14.55;6.55;;;;;;;;;;4104231;34;20426;-60
2022/04/03 06:33:22;;;;;;;8.75;3.67;;;;;;;;;;4098538;34;20113;-64
2022/04/03 06:35:49;;;;;;;10.73;3.33;;;;;;;;;;4096857;35;20533;-64
2022/04/03 06:38:15;;;;;;;6.07;2.67;;;;;;;;;;4096786;35;20533;-63
2022/04/03 06:40:51;;;;;;;10.15;4.28;;;;;;;;;;4096721;35;20206;-63
2022/04/03 06:43:22;;;;;;;17.73;4.80;;;;;;;;;;4096070;35;20136;-63
2022/04/03 06:45:48;;;;;;;16.42;4.68;;;;;;;;;;4094905;35;20225;-62
2022/04/03 06:48:15;;;;;;;11.57;4.50;;;;;;;;;;4096891;35;20112;-61
2022/04/03 06:50:41;;;;;;;10.00;4.45;;;;;;;;;;4096413;35;20214;-61
2022/04/03 06:53:07;;;;;;;17.50;5.37;;;;;;;;;;4094243;35;20132;-62
2022/04/03 06:55:33;;;;;;;9.70;5.40;;;;;;;;;;4095837;35;20155;-59
2022/04/03 06:57:59;;;;;;;14.98;5.25;;;;;;;;;;4103772;34;20100;-59
2022/04/03 07:00:26;;;;;;;10.30;4.35;;;;;;;;;;4098064;34;20211;-59
2022/04/03 07:02:52;;;;;;;9.52;4.95;;;;;;;;;;4095308;34;20143;-59
2022/04/03 07:05:18;;;;;;;18.35;5.37;;;;;;;;;;4094951;35;20136;-59
2022/04/03 07:07:44;;;;;;;9.82;4.75;;;;;;;;;;4095633;35;20151;-60
2022/04/03 07:10:11;;;;;;;10.43;4.55;;;;;;;;;;4071146;35;20127;-60
2022/04/03 07:12:37;;;;;;;19.87;5.80;;;;;;;;;;4092512;35;20128;-61
2022/04/03 07:15:05;;;;;;;12.52;4.22;;;;;;;;;;4093797;35;20463;-60
2022/04/03 07:17:31;;;;;;;16.62;4.97;;;;;;;;;;4094053;35;20115;-60
2022/04/03 07:19:56;;;;;;;13.40;5.43;;;;;;;;;;4094260;35;20113;-60
2022/04/03 07:22:22;;;;;;;15.93;7.20;;;;;;;;;;4094879;35;20128;-59
2022/04/03 07:24:48;;;;;;;9.40;4.70;;;;;;;;;;4095253;35;20617;-60
2022/04/03 07:27:14;;;;;;;4.78;2.70;;;;;;;;;;4095820;35;20497;-59
2022/04/03 07:29:40;;;;;;;14.80;5.80;;;;;;;;;;4096378;35;20523;-60
2022/04/03 07:32:07;;;;;;;3.92;2.37;;;;;;;;;;4096198;35;20100;-59
2022/04/03 07:34:33;;;;;;;9.48;3.08;;;;;;;;;;4096224;35;20124;-60
2022/04/03 07:36:59;;;;;;;14.82;5.22;;;;;;;;;;4096041;35;20119;-60
2022/04/03 07:39:28;;;;;;;15.45;4.45;;;;;;;;;;4096090;35;20556;-60
2022/04/03 07:41:54;;;;;;;11.00;4.35;;;;;;;;;;4084051;35;20229;-60
2022/04/03 07:44:20;;;;;;;16.12;5.60;;;;;;;;;;4096142;35;20105;-59
2022/04/03 07:46:47;;;;;;;11.45;4.10;;;;;;;;;;4072592;35;20128;-58
2022/04/03 07:49:13;;;;;;;15.68;4.47;;;;;;;;;;4094889;35;20192;-61
2022/04/03 07:51:39;;;;;;;13.43;5.28;;;;;;;;;;4095964;35;20127;-61
2022/04/03 07:54:05;;;;;;;26.67;5.15;;;;;;;;;;4095642;35;20223;-61
2022/04/03 07:56:31;;;;;;;18.17;6.50;;;;;;;;;;4097568;35;20154;-61
2022/04/03 07:58:57;;;;;;;23.42;6.57;;;;;;;;;;4097754;35;20458;-62
2022/04/03 08:01:23;;;;;;;13.70;4.50;;;;;;;;;;4097710;35;20242;-64
2022/04/03 08:03:49;;;;;;;16.65;5.47;;;;;;;;;;4098323;35;20097;-64
2022/04/03 08:06:15;;;;;;;16.23;5.50;;;;;;;;;;4097617;35;20099;-63
2022/04/03 08:08:41;;;;;;;11.75;4.70;;;;;;;;;;4095159;35;20577;-63
2022/04/03 08:11:09;;;;;;;12.45;5.78;;;;;;;;;;4093656;35;20132;-63
2022/04/03 08:13:35;;;;;;;13.88;3.90;;;;;;;;;;4093279;35;20545;-61
2022/04/03 08:16:01;;;;;;;24.27;6.10;;;;;;;;;;4093931;35;20226;-62
2022/04/03 08:18:28;;;;;;;4.10;1.95;;;;;;;;;;4093588;35;20198;-61
2022/04/03 08:20:54;;;;;;;2.35;1.85;;;;;;;;;;4093772;35;20132;-61
2022/04/03 08:23:20;;;;;;;5.40;2.03;;;;;;;;;;4093580;35;20205;-61
2022/04/03 08:25:46;;;;;;;5.43;2.55;;;;;;;;;;4093583;35;20762;-62
2022/04/03 08:28:14;;;;;;;13.95;2.30;;;;;;;;;;4069908;35;20470;-61
2022/04/03 08:30:40;;;;;;;4.75;2.40;;;;;;;;;;4082232;35;20135;-61
2022/04/03 08:33:08;;;;;;;7.62;2.30;;;;;;;;;;4097527;35;20125;-61
2022/04/03 08:35:40;;;;;;;5.47;2.87;;;;;;;;;;4097589;35;20104;-62
2022/04/03 08:38:07;;;;;;;4.25;2.30;;;;;;;;;;4097642;35;20127;-61
2022/04/03 08:40:34;;;;;;;3.60;2.53;;;;;;;;;;4097744;35;20095;-62
2022/04/03 08:43:01;;;;;;;4.60;2.72;;;;;;;;;;4097975;35;20135;-62
2022/04/03 08:45:27;;;;;;;10.20;2.58;;;;;;;;;;4097798;35;20088;-62
2022/04/03 08:47:55;;;;;;;16.23;5.37;;;;;;;;;;4097615;35;20097;-62
2022/04/03 08:50:29;;;;;;;19.33;5.12;;;;;;;;;;4100564;34;20157;-61
2022/04/03 08:52:58;;;;;;;16.98;5.07;;;;;;;;;;4103210;34;20111;-60
2022/04/03 08:55:24;;;;;;;6.82;4.10;;;;;;;;;;4096856;35;20199;-61
2022/04/03 08:57:50;;;;;;;8.27;3.87;;;;;;;;;;4096640;35;20120;-63
2022/04/03 09:00:16;;;;;;;3.58;1.70;;;;;;;;;;4084317;35;20745;-61
2022/04/03 09:02:45;;;;;;;19.92;5.25;;;;;;;;;;4096410;35;20133;-63
2022/04/03 09:05:11;;;;;;;17.15;4.85;;;;;;;;;;4096478;35;20104;-63
2022/04/03 09:07:37;;;;;;;7.50;3.62;;;;;;;;;;4096208;35;20470;-63
2022/04/03 09:10:16;;;;;;;5.43;2.17;;;;;;;;;;4085005;35;20168;-62
2022/04/03 09:12:47;;;;;;;25.30;5.72;;;;;;;;;;4088042;34;20105;-65
2022/04/03 09:15:19;;;;;;;16.05;4.62;;;;;;;;;;4098350;34;20105;-62
2022/04/03 09:17:49;;;;;;;23.65;6.22;;;;;;;;;;4090076;34;20105;-63
2022/04/03 09:20:20;;;;;;;20.73;5.32;;;;;;;;;;4089124;34;20123;-61
2022/04/03 09:22:50;;;;;;;28.23;6.78;;;;;;;;;;4109212;34;20123;-62
2022/04/03 09:25:19;;;;;;;22.95;5.85;;;;;;;;;;4098981;34;20135;-61
2022/04/03 09:27:49;;;;;;;27.37;7.57;;;;;;;;;;4095933;35;20547;-61
2022/04/03 09:30:16;;;;;;;14.32;5.43;;;;;;;;;;4096293;35;20131;-61
2022/04/03 09:32:47;;;;;;;24.90;5.65;;;;;;;;;;4096219;35;20136;-61
2022/04/03 09:35:13;;;;;;;11.23;3.78;;;;;;;;;;4102896;34;20532;-63
2022/04/03 09:37:39;;;;;;;24.70;5.18;;;;;;;;;;4104241;34;20195;-62
2022/04/03 09:40:06;;;;;;;11.05;3.53;;;;;;;;;;4105616;34;20132;-64
2022/04/03 09:42:32;;;;;;;3.37;1.23;;;;;;;;;;4097038;35;20115;-62
2022/04/03 09:44:58;;;;;;;2.62;1.77;;;;;;;;;;4085030;35;20225;-61
2022/04/03 09:47:26;;;;;;;4.93;2.40;;;;;;;;;;4097527;35;20207;-60
2022/04/03 09:49:58;;;;;;;1.17;1.17;;;;;;;;;;4097262;35;20111;-66
2022/04/03 09:52:48;;;;;;;4.35;1.80;;;;;;;;;;4097508;35;20104;-72
2022/04/03 09:55:21;;;;;;;6.25;1.65;;;;;;;;;;4095171;35;20513;-64
2022/04/03 09:58:02;;;;;;;1.92;1.80;;;;;;;;;;4084120;35;20107;-66
2022/04/03 10:00:34;;;;;;;3.28;1.77;;;;;;;;;;4078487;35;20172;-65
2022/04/03 10:03:02;;;;;;;5.47;2.10;;;;;;;;;;4084938;35;20566;-65
2022/04/03 10:05:34;;;;;;;19.15;5.87;;;;;;;;;;4097016;35;20532;-64
2022/04/03 10:08:01;;;;;;;23.17;6.22;;;;;;;;;;4096443;35;20132;-64
2022/04/03 10:10:28;;;;;;;42.83;6.47;;;;;;;;;;4097003;35;20123;-66
2022/04/03 10:12:58;;;;;;;43.95;7.75;;;;;;;;;;4096975;35;20222;-66
2022/04/03 10:15:28;;;;;;;22.00;6.55;;;;;;;;;;4096883;35;20142;-65
2022/04/03 10:17:55;;;;;;;22.77;5.93;;;;;;;;;;4083839;35;20105;-65
2022/04/03 10:20:28;;;;;;;26.37;7.45;;;;;;;;;;4095633;35;20153;-67
2022/04/03 10:23:14;;;;;;;24.50;5.47;;;;;;;;;;4084607;35;20192;-64
2022/04/03 10:25:44;;;;;;;27.87;8.50;;;;;;;;;;4084472;35;20498;-62
2022/04/03 10:28:10;;;;;;;26.42;6.25;;;;;;;;;;4084703;35;20143;-66
2022/04/03 10:30:38;;;;;;;20.30;4.32;;;;;;;;;;4084745;35;20096;-63
2022/04/03 10:33:05;;;;;;;26.42;7.07;;;;;;;;;;4096711;35;20124;-63
2022/04/03 10:35:31;;;;;;;22.92;5.57;;;;;;;;;;4096838;35;20108;-63
2022/04/03 10:38:05;;;;;;;16.67;4.57;;;;;;;;;;4096851;35;20278;-63
2022/04/03 10:40:33;;;;;;;20.25;5.75;;;;;;;;;;4096811;35;20152;-62
2022/04/03 10:43:05;;;;;;;16.75;4.82;;;;;;;;;;4098017;34;20180;-61
2022/04/03 10:45:33;;;;;;;19.62;5.18;;;;;;;;;;4096457;35;20557;-62
2022/04/03 10:49:05;;;;;;;20.58;5.47;;;;;;;;;;3854977;37;20444;-62
2022/04/03 10:51:33;;;;;;;22.15;5.87;;;;;;;;;;4408172;32;20133;-67
2022/04/03 10:54:02;;;;;;;24.05;6.28;;;;;;;;;;4409078;32;20109;-62
2022/04/03 10:56:29;;;;;;;28.60;9.32;;;;;;;;;;4409783;32;20453;-66
2022/04/03 10:58:56;;;;;;;22.42;7.07;;;;;;;;;;4414968;32;20139;-64
2022/04/03 11:01:29;;;;;;;29.73;7.03;;;;;;;;;;4416007;32;20103;-60
2022/04/03 11:04:07;;;;;;;32.95;8.23;;;;;;;;;;4417628;32;20113;-64
2022/04/03 11:06:38;;;;;;;35.20;7.55;;;;;;;;;;4418036;32;20133;-65
2022/04/03 11:09:11;;;;;;;26.58;6.70;;;;;;;;;;4403939;32;20521;-64
2022/04/03 11:11:38;;;;;;;17.92;5.45;;;;;;;;;;4417608;32;20198;-61
2022/04/03 11:14:08;;;;;;;18.17;5.50;;;;;;;;;;4418822;32;20085;-63
2022/04/03 11:16:55;;;;;;;26.30;5.22;;;;;;;;;;4419538;32;20188;-63
2022/04/03 11:19:34;;;;;;;25.88;4.70;;;;;;;;;;4419474;32;20205;-64
2022/04/03 11:22:00;;;;;;;28.50;6.18;;;;;;;;;;4406142;32;20100;-62
2022/04/03 11:24:26;;;;;;;27.15;6.53;;;;;;;;;;4403832;32;20121;-62
2022/04/03 11:26:52;;;;;;;20.08;4.22;;;;;;;;;;4405823;32;20137;-60
2022/04/03 11:29:18;;;;;;;25.05;5.95;;;;;;;;;;4404107;32;20273;-61
2022/04/03 11:31:45;;;;;;;36.15;7.72;;;;;;;;;;4403521;32;20097;-61
2022/04/03 11:34:12;;;;;;;23.25;6.00;;;;;;;;;;4402400;32;20121;-61
2022/04/03 11:36:38;;;;;;;19.12;4.95;;;;;;;;;;4401941;32;20125;-62
2022/04/03 11:39:08;;;;;;;25.77;7.12;;;;;;;;;;4403947;32;20116;-63
2022/04/03 11:41:35;;;;;;;18.75;5.00;;;;;;;;;;4403074;32;20109;-63
2022/04/03 11:44:10;;;;;;;19.75;5.50;;;;;;;;;;4403766;32;20120;-62
2022/04/03 11:46:36;;;;;;;24.45;5.25;;;;;;;;;;4403801;32;20089;-63
2022/04/03 11:49:13;;;;;;;9.40;2.60;;;;;;;;;;4403959;32;20108;-62
2022/04/03 11:51:40;;;;;;;17.23;4.45;;;;;;;;;;4403206;32;20113;-62
2022/04/03 11:54:06;;;;;;;13.25;5.07;;;;;;;;;;4402802;32;20193;-65
2022/04/03 11:56:35;;;;;;;11.05;3.80;;;;;;;;;;4401988;32;20108;-62
2022/04/03 11:59:03;;;;;;;21.33;5.45;;;;;;;;;;4398047;32;20104;-62
2022/04/03 12:01:35;;;;;;;15.25;5.05;;;;;;;;;;4393285;32;20125;-64
2022/04/03 12:04:01;;;;;;;33.53;6.97;;;;;;;;;;4393770;32;20106;-64
2022/04/03 12:06:29;;;;;;;22.58;5.10;;;;;;;;;;4392229;32;20105;-64
2022/04/03 12:08:55;;;;;;;25.70;4.72;;;;;;;;;;4393436;32;20114;-62
2022/04/03 12:11:27;;;;;;;23.77;5.62;;;;;;;;;;4403381;32;20142;-61
2022/04/03 12:13:55;;;;;;;12.68;3.95;;;;;;;;;;4369526;32;20230;-62
2022/04/03 12:16:27;;;;;;;21.42;4.28;;;;;;;;;;4396950;32;20758;-64
2022/04/03 12:19:08;;;;;;;18.90;5.47;;;;;;;;;;4396848;32;20144;-64
2022/04/03 12:21:42;;;;;;;38.38;6.50;;;;;;;;;;4366220;32;20555;-65
2022/04/03 12:24:13;;;;;;;20.23;6.68;;;;;;;;;;4391085;32;20114;-67
2022/04/03 12:26:44;;;;;;;24.80;5.95;;;;;;;;;;4389806;32;20117;-66
2022/04/03 12:29:10;;;;;;;22.52;6.07;;;;;;;;;;4388664;32;20120;-67
2022/04/03 12:31:36;;;;;;;17.85;4.40;;;;;;;;;;4392892;32;20147;-65
2022/04/03 12:34:07;;;;;;;28.98;5.50;;;;;;;;;;4402351;32;20484;-63
2022/04/03 12:36:47;;;;;;;20.52;5.18;;;;;;;;;;4404765;32;20193;-65
2022/04/03 12:39:33;;;;;;;20.42;6.18;;;;;;;;;;4408398;32;20108;-64
2022/04/03 12:42:45;;;;;;;32.38;6.50;;;;;;;;;;4387106;32;20508;-65
2022/04/03 12:45:17;;;;;;;28.05;6.97;;;;;;;;;;4373322;32;20121;-65
2022/04/03 12:48:01;;;;;;;22.42;6.45;;;;;;;;;;4400898;32;20101;-65
2022/04/03 12:50:30;;;;;;;25.05;5.87;;;;;;;;;;4383756;32;20194;-65
2022/04/03 12:52:57;;;;;;;20.33;5.25;;;;;;;;;;4392103;32;20109;-63
2022/04/03 13:00:55;;;;;;;28.35;6.82;;;;;;;;;;4396600;32;20097;-65
2022/04/03 13:03:32;;;;;;;9.38;4.20;;;;;;;;;;4399638;32;20140;-66
2022/04/03 13:06:01;;;;;;;18.58;6.68;;;;;;;;;;4392791;32;20093;-64
2022/04/03 13:08:28;;;;;;;33.60;8.23;;;;;;;;;;4398085;32;20101;-64
2022/04/03 13:10:56;;;;;;;21.52;6.97;;;;;;;;;;4394318;32;20464;-64
2022/04/03 13:13:23;;;;;;;18.37;5.80;;;;;;;;;;4393366;32;20109;-67
2022/04/03 13:15:49;;;;;;;23.15;5.20;;;;;;;;;;4407511;32;20113;-68
2022/04/03 13:18:15;;;;;;;19.12;5.87;;;;;;;;;;4394285;32;20143;-66
2022/04/03 13:20:53;;;;;;;23.10;6.43;;;;;;;;;;4403013;32;20113;-67
2022/04/03 13:23:21;;;;;;;21.55;5.00;;;;;;;;;;4406452;32;20492;-66
2022/04/03 13:25:47;;;;;;;17.75;5.25;;;;;;;;;;4406632;32;20125;-67
2022/04/03 13:28:14;;;;;;;27.33;5.30;;;;;;;;;;4408021;32;20434;-66
2022/04/03 13:30:42;;;;;;;26.00;4.45;;;;;;;;;;4408388;32;20508;-67
2022/04/03 13:33:08;;;;;;;28.83;5.53;;;;;;;;;;4408113;32;20132;-66
2022/04/03 13:35:37;;;;;;;24.83;6.10;;;;;;;;;;4408210;32;20109;-66
2022/04/03 13:38:11;;;;;;;19.40;4.45;;;;;;;;;;4406341;32;20726;-66
2022/04/03 13:40:37;;;;;;;13.38;4.30;;;;;;;;;;4408115;32;20519;-68
2022/04/03 13:43:06;;;;;;;21.05;5.47;;;;;;;;;;4402418;32;20121;-68
2022/04/03 13:48:17;;;;;;;21.30;6.93;;;;;;;;;;4401252;32;20119;-62
2022/04/03 13:50:43;;;;;;;21.48;5.30;;;;;;;;;;4395696;32;20109;-68
2022/04/03 13:53:09;;;;;;;15.27;5.12;;;;;;;;;;4396156;32;20124;-67
2022/04/03 13:55:35;;;;;;;13.48;4.65;;;;;;;;;;4396379;32;20141;-70
2022/04/03 13:58:01;;;;;;;17.73;4.57;;;;;;;;;;4394646;32;20193;-65
2022/04/03 14:00:27;;;;;;;21.27;5.10;;;;;;;;;;4397054;32;20120;-63
2022/04/03 14:02:55;;;;;;;17.27;3.90;;;;;;;;;;4394321;32;20220;-63
2022/04/03 14:05:21;;;;;;;20.50;5.20;;;;;;;;;;4398193;32;20140;-65
2022/04/03 14:07:47;;;;;;;18.50;5.97;;;;;;;;;;4395588;32;20629;-65
2022/04/03 14:10:13;;;;;;;17.00;3.70;;;;;;;;;;4391064;32;20149;-66
2022/04/03 14:12:39;;;;;;;19.73;4.70;;;;;;;;;;4398558;32;20684;-66
2022/04/03 14:15:06;;;;;;;23.27;5.18;;;;;;;;;;4398964;32;20940;-65
2022/04/03 14:17:33;;;;;;;8.77;2.90;;;;;;;;;;4399532;32;20108;-66
2022/04/03 14:46:08;;;;;;;12.50;4.75;;;;;;;;;;3822940;37;20107;-65
2022/04/03 14:48:34;;;;;;;20.15;4.22;;;;;;;;;;4407745;32;20097;-66
2022/04/03 14:51:00;;;;;;;14.63;4.18;;;;;;;;;;4403685;32;20127;-66
2022/04/03 14:53:26;;;;;;;7.22;2.62;;;;;;;;;;4391906;32;20524;-67
2022/04/03 14:55:52;;;;;;;9.98;3.12;;;;;;;;;;4403334;32;20131;-65
2022/04/03 14:58:18;;;;;;;14.27;4.60;;;;;;;;;;4404432;32;20132;-64
2022/04/03 15:00:44;;;;;;;15.27;4.07;;;;;;;;;;4403263;32;20108;-66
2022/04/03 15:03:12;;;;;;;11.65;4.35;;;;;;;;;;4395375;32;20081;-65
2022/04/03 15:05:39;;;;;;;16.25;4.47;;;;;;;;;;4402907;32;20124;-65
2022/04/03 15:08:07;;;;;;;13.32;4.20;;;;;;;;;;4394173;32;20563;-66
2022/04/03 15:10:33;;;;;;;14.10;4.78;;;;;;;;;;4387727;32;20133;-64
2022/04/03 15:12:59;;;;;;;17.00;4.78;;;;;;;;;;4403776;32;20106;-66
2022/04/03 15:15:25;;;;;;;18.83;4.60;;;;;;;;;;4404070;32;20135;-66
2022/04/03 15:17:51;;;;;;;10.65;4.80;;;;;;;;;;4389906;32;20102;-65
2022/04/03 15:20:17;;;;;;;13.98;4.72;;;;;;;;;;4394213;32;20185;-63
2022/04/03 15:22:44;;;;;;;8.15;3.87;;;;;;;;;;4395658;32;20204;-65
2022/04/03 15:25:10;;;;;;;13.13;4.57;;;;;;;;;;4402651;32;20096;-65
2022/04/03 15:27:36;;;;;;;11.23;3.65;;;;;;;;;;4401990;32;20874;-65
2022/04/03 15:30:04;;;;;;;9.82;3.83;;;;;;;;;;4403994;32;20204;-64
2022/04/03 15:32:30;;;;;;;10.57;4.07;;;;;;;;;;4400441;32;20114;-65
2022/04/03 15:34:56;;;;;;;7.75;3.62;;;;;;;;;;4388651;32;20119;-62